sensor_id;sensor_type;location;lat;lon;timestamp;P1;durP1;ratioP1;P2;durP2;ratioP2
66175;SDS011;52977;44.816;20.538;2022-10-01T00:01:48;3.90;;;1.50;;
66175;SDS011;52977;44.816;20.538;2022-10-01T00:04:14;6.03;;;1.65;;
66175;SDS011;52977;44.816;20.538;2022-10-01T00:06:40;4.47;;;1.80;;
66175;SDS011;52977;44.816;20.538;2022-10-01T00:09:05;4.63;;;1.45;;
66175;SDS011;52977;44.816;20.538;2022-10-01T00:11:31;4.57;;;1.90;;
66175;SDS011;52977;44.816;20.538;2022-10-01T00:13:58;4.50;;;1.58;;
66175;SDS011;52977;44.816;20.538;2022-10-01T00:16:25;6.85;;;1.85;;
66175;SDS011;52977;44.816;20.538;2022-10-01T00:18:52;3.60;;;1.50;;
66175;SDS011;52977;44.816;20.538;2022-10-01T00:23:56;4.63;;;1.60;;
66175;SDS011;52977;44.816;20.538;2022-10-01T00:26:24;4.60;;;1.38;;
66175;SDS011;52977;44.816;20.538;2022-10-01T00:28:56;5.38;;;1.70;;
66175;SDS011;52977;44.816;20.538;2022-10-01T00:31:26;5.05;;;1.73;;
66175;SDS011;52977;44.816;20.538;2022-10-01T00:33:53;3.15;;;1.50;;
66175;SDS011;52977;44.816;20.538;2022-10-01T00:36:20;4.90;;;1.80;;
66175;SDS011;52977;44.816;20.538;2022-10-01T00:38:46;4.43;;;1.70;;
66175;SDS011;52977;44.816;20.538;2022-10-01T00:41:13;3.55;;;1.80;;
66175;SDS011;52977;44.816;20.538;2022-10-01T00:43:50;5.28;;;1.70;;
66175;SDS011;52977;44.816;20.538;2022-10-01T00:49:08;3.17;;;1.67;;
66175;SDS011;52977;44.816;20.538;2022-10-01T00:51:43;4.43;;;2.08;;
66175;SDS011;52977;44.816;20.538;2022-10-01T00:54:13;6.00;;;2.35;;
66175;SDS011;52977;44.816;20.538;2022-10-01T00:56:43;5.22;;;1.50;;
66175;SDS011;52977;44.816;20.538;2022-10-01T00:59:10;12.55;;;1.58;;
66175;SDS011;52977;44.816;20.538;2022-10-01T01:01:37;7.95;;;2.38;;
66175;SDS011;52977;44.816;20.538;2022-10-01T01:04:03;5.00;;;1.60;;
66175;SDS011;52977;44.816;20.538;2022-10-01T01:06:43;10.80;;;2.20;;
66175;SDS011;52977;44.816;20.538;2022-10-01T01:09:12;4.18;;;2.05;;
66175;SDS011;52977;44.816;20.538;2022-10-01T01:11:51;5.95;;;2.13;;
66175;SDS011;52977;44.816;20.538;2022-10-01T01:15:13;3.05;;;1.80;;
66175;SDS011;52977;44.816;20.538;2022-10-01T01:26:01;4.15;;;1.75;;
66175;SDS011;52977;44.816;20.538;2022-10-01T01:28:39;5.25;;;1.60;;
66175;SDS011;52977;44.816;20.538;2022-10-01T01:31:12;3.33;;;1.67;;
66175;SDS011;52977;44.816;20.538;2022-10-01T01:33:42;6.53;;;1.50;;
66175;SDS011;52977;44.816;20.538;2022-10-01T01:36:13;3.90;;;1.70;;
66175;SDS011;52977;44.816;20.538;2022-10-01T01:38:46;4.70;;;1.90;;
66175;SDS011;52977;44.816;20.538;2022-10-01T01:41:19;5.75;;;1.75;;
66175;SDS011;52977;44.816;20.538;2022-10-01T01:43:49;4.60;;;2.00;;
66175;SDS011;52977;44.816;20.538;2022-10-01T01:46:18;3.67;;;1.63;;
66175;SDS011;52977;44.816;20.538;2022-10-01T01:48:44;3.67;;;1.80;;
66175;SDS011;52977;44.816;20.538;2022-10-01T01:51:19;4.25;;;1.75;;
66175;SDS011;52977;44.816;20.538;2022-10-01T01:53:50;4.03;;;1.50;;
66175;SDS011;52977;44.816;20.538;2022-10-01T01:56:16;4.20;;;1.35;;
66175;SDS011;52977;44.816;20.538;2022-10-01T01:58:43;4.00;;;1.75;;
66175;SDS011;52977;44.816;20.538;2022-10-01T02:03:59;5.25;;;1.60;;
66175;SDS011;52977;44.816;20.538;2022-10-01T02:09:26;4.38;;;1.48;;
66175;SDS011;52977;44.816;20.538;2022-10-01T02:12:05;5.57;;;1.77;;
66175;SDS011;52977;44.816;20.538;2022-10-01T02:14:36;2.50;;;1.65;;
66175;SDS011;52977;44.816;20.538;2022-10-01T02:17:26;4.90;;;1.70;;
66175;SDS011;52977;44.816;20.538;2022-10-01T02:20:27;3.78;;;1.58;;
66175;SDS011;52977;44.816;20.538;2022-10-01T02:23:00;5.00;;;1.95;;
66175;SDS011;52977;44.816;20.538;2022-10-01T02:25:32;2.83;;;1.40;;
66175;SDS011;52977;44.816;20.538;2022-10-01T02:28:08;4.57;;;1.60;;
66175;SDS011;52977;44.816;20.538;2022-10-01T02:30:36;4.20;;;1.60;;
66175;SDS011;52977;44.816;20.538;2022-10-01T02:33:05;3.58;;;1.42;;
66175;SDS011;52977;44.816;20.538;2022-10-01T02:35:34;2.72;;;1.48;;
66175;SDS011;52977;44.816;20.538;2022-10-01T02:38:04;2.65;;;1.35;;
66175;SDS011;52977;44.816;20.538;2022-10-01T02:40:32;4.63;;;1.42;;
66175;SDS011;52977;44.816;20.538;2022-10-01T02:43:04;3.80;;;1.50;;
66175;SDS011;52977;44.816;20.538;2022-10-01T02:45:35;3.22;;;1.25;;
66175;SDS011;52977;44.816;20.538;2022-10-01T02:48:05;4.03;;;1.30;;
66175;SDS011;52977;44.816;20.538;2022-10-01T02:50:35;2.30;;;1.42;;
66175;SDS011;52977;44.816;20.538;2022-10-01T02:53:25;4.90;;;1.40;;
66175;SDS011;52977;44.816;20.538;2022-10-01T02:55:56;3.20;;;1.27;;
66175;SDS011;52977;44.816;20.538;2022-10-01T02:58:24;3.78;;;1.38;;
66175;SDS011;52977;44.816;20.538;2022-10-01T03:00:49;3.72;;;1.40;;
66175;SDS011;52977;44.816;20.538;2022-10-01T03:03:15;3.38;;;1.40;;
66175;SDS011;52977;44.816;20.538;2022-10-01T03:05:41;3.30;;;1.45;;
66175;SDS011;52977;44.816;20.538;2022-10-01T03:08:06;5.60;;;1.48;;
66175;SDS011;52977;44.816;20.538;2022-10-01T03:10:35;10.45;;;1.50;;
66175;SDS011;52977;44.816;20.538;2022-10-01T03:13:00;3.95;;;1.30;;
66175;SDS011;52977;44.816;20.538;2022-10-01T03:15:26;4.25;;;1.35;;
66175;SDS011;52977;44.816;20.538;2022-10-01T03:17:53;2.05;;;1.20;;
66175;SDS011;52977;44.816;20.538;2022-10-01T03:20:19;5.28;;;1.25;;
66175;SDS011;52977;44.816;20.538;2022-10-01T03:22:45;5.18;;;1.45;;
66175;SDS011;52977;44.816;20.538;2022-10-01T03:25:12;2.97;;;1.35;;
66175;SDS011;52977;44.816;20.538;2022-10-01T03:27:41;3.67;;;1.17;;
66175;SDS011;52977;44.816;20.538;2022-10-01T03:30:07;3.88;;;1.40;;
66175;SDS011;52977;44.816;20.538;2022-10-01T03:32:33;4.53;;;1.55;;
66175;SDS011;52977;44.816;20.538;2022-10-01T03:34:59;5.35;;;1.50;;
66175;SDS011;52977;44.816;20.538;2022-10-01T03:37:24;3.30;;;1.45;;
66175;SDS011;52977;44.816;20.538;2022-10-01T03:39:50;2.92;;;1.40;;
66175;SDS011;52977;44.816;20.538;2022-10-01T03:42:16;2.92;;;1.20;;
66175;SDS011;52977;44.816;20.538;2022-10-01T03:44:41;3.97;;;1.60;;
66175;SDS011;52977;44.816;20.538;2022-10-01T03:47:08;4.22;;;1.42;;
66175;SDS011;52977;44.816;20.538;2022-10-01T03:49:34;2.78;;;1.23;;
66175;SDS011;52977;44.816;20.538;2022-10-01T03:52:00;6.88;;;2.25;;
66175;SDS011;52977;44.816;20.538;2022-10-01T03:54:27;2.50;;;1.27;;
66175;SDS011;52977;44.816;20.538;2022-10-01T03:56:55;4.78;;;1.35;;
66175;SDS011;52977;44.816;20.538;2022-10-01T03:59:21;5.90;;;1.40;;
66175;SDS011;52977;44.816;20.538;2022-10-01T04:01:47;2.85;;;1.15;;
66175;SDS011;52977;44.816;20.538;2022-10-01T04:04:13;4.75;;;1.55;;
66175;SDS011;52977;44.816;20.538;2022-10-01T04:06:39;4.50;;;1.40;;
66175;SDS011;52977;44.816;20.538;2022-10-01T04:09:05;4.13;;;1.25;;
66175;SDS011;52977;44.816;20.538;2022-10-01T04:11:30;3.35;;;1.20;;
66175;SDS011;52977;44.816;20.538;2022-10-01T04:13:56;4.15;;;1.42;;
66175;SDS011;52977;44.816;20.538;2022-10-01T04:16:22;3.15;;;1.42;;
66175;SDS011;52977;44.816;20.538;2022-10-01T04:18:49;3.58;;;1.45;;
66175;SDS011;52977;44.816;20.538;2022-10-01T04:21:14;4.60;;;1.35;;
66175;SDS011;52977;44.816;20.538;2022-10-01T04:23:40;4.47;;;2.17;;
66175;SDS011;52977;44.816;20.538;2022-10-01T04:26:06;5.07;;;2.67;;
66175;SDS011;52977;44.816;20.538;2022-10-01T04:28:32;3.67;;;1.73;;
66175;SDS011;52977;44.816;20.538;2022-10-01T04:30:57;6.07;;;2.22;;
66175;SDS011;52977;44.816;20.538;2022-10-01T04:33:52;4.40;;;1.77;;
66175;SDS011;52977;44.816;20.538;2022-10-01T04:36:19;6.30;;;2.53;;
66175;SDS011;52977;44.816;20.538;2022-10-01T04:38:45;6.43;;;2.35;;
66175;SDS011;52977;44.816;20.538;2022-10-01T04:41:11;7.25;;;2.42;;
66175;SDS011;52977;44.816;20.538;2022-10-01T04:43:38;7.07;;;2.50;;
66175;SDS011;52977;44.816;20.538;2022-10-01T04:46:05;6.30;;;2.65;;
66175;SDS011;52977;44.816;20.538;2022-10-01T04:48:30;7.03;;;2.38;;
66175;SDS011;52977;44.816;20.538;2022-10-01T04:50:56;6.40;;;2.30;;
66175;SDS011;52977;44.816;20.538;2022-10-01T04:53:24;3.90;;;2.00;;
66175;SDS011;52977;44.816;20.538;2022-10-01T04:55:50;6.13;;;2.05;;
66175;SDS011;52977;44.816;20.538;2022-10-01T04:58:16;5.95;;;2.35;;
66175;SDS011;52977;44.816;20.538;2022-10-01T05:00:42;4.95;;;2.13;;
66175;SDS011;52977;44.816;20.538;2022-10-01T05:03:08;4.93;;;2.30;;
66175;SDS011;52977;44.816;20.538;2022-10-01T05:05:35;5.85;;;1.92;;
66175;SDS011;52977;44.816;20.538;2022-10-01T05:08:01;5.93;;;2.10;;
66175;SDS011;52977;44.816;20.538;2022-10-01T05:10:27;11.00;;;2.42;;
66175;SDS011;52977;44.816;20.538;2022-10-01T05:12:53;5.22;;;2.25;;
66175;SDS011;52977;44.816;20.538;2022-10-01T05:15:22;3.40;;;1.90;;
66175;SDS011;52977;44.816;20.538;2022-10-01T05:17:47;5.63;;;2.50;;
66175;SDS011;52977;44.816;20.538;2022-10-01T05:20:17;8.10;;;1.92;;
66175;SDS011;52977;44.816;20.538;2022-10-01T05:22:45;5.53;;;1.60;;
66175;SDS011;52977;44.816;20.538;2022-10-01T05:25:11;5.95;;;1.90;;
66175;SDS011;52977;44.816;20.538;2022-10-01T05:27:38;6.30;;;2.03;;
66175;SDS011;52977;44.816;20.538;2022-10-01T05:30:05;5.72;;;2.00;;
66175;SDS011;52977;44.816;20.538;2022-10-01T05:32:33;4.05;;;2.35;;
66175;SDS011;52977;44.816;20.538;2022-10-01T05:34:59;7.63;;;2.38;;
66175;SDS011;52977;44.816;20.538;2022-10-01T05:37:24;5.15;;;2.30;;
66175;SDS011;52977;44.816;20.538;2022-10-01T05:39:50;6.03;;;2.15;;
66175;SDS011;52977;44.816;20.538;2022-10-01T05:42:15;6.28;;;2.15;;
66175;SDS011;52977;44.816;20.538;2022-10-01T05:44:41;5.50;;;1.98;;
66175;SDS011;52977;44.816;20.538;2022-10-01T05:47:10;4.68;;;1.70;;
66175;SDS011;52977;44.816;20.538;2022-10-01T05:49:38;4.20;;;2.05;;
66175;SDS011;52977;44.816;20.538;2022-10-01T05:52:07;5.25;;;1.80;;
66175;SDS011;52977;44.816;20.538;2022-10-01T05:54:36;5.10;;;1.60;;
66175;SDS011;52977;44.816;20.538;2022-10-01T05:57:02;6.82;;;2.42;;
66175;SDS011;52977;44.816;20.538;2022-10-01T05:59:28;5.93;;;2.45;;
66175;SDS011;52977;44.816;20.538;2022-10-01T06:01:53;5.80;;;2.42;;
66175;SDS011;52977;44.816;20.538;2022-10-01T06:04:19;8.32;;;3.33;;
66175;SDS011;52977;44.816;20.538;2022-10-01T06:06:44;8.77;;;4.00;;
66175;SDS011;52977;44.816;20.538;2022-10-01T06:09:11;14.88;;;5.68;;
66175;SDS011;52977;44.816;20.538;2022-10-01T06:11:38;17.70;;;7.15;;
66175;SDS011;52977;44.816;20.538;2022-10-01T06:14:04;25.63;;;9.30;;
66175;SDS011;52977;44.816;20.538;2022-10-01T06:16:30;25.48;;;10.63;;
66175;SDS011;52977;44.816;20.538;2022-10-01T06:18:56;16.33;;;6.10;;
66175;SDS011;52977;44.816;20.538;2022-10-01T06:21:22;10.00;;;4.40;;
66175;SDS011;52977;44.816;20.538;2022-10-01T06:23:49;10.18;;;4.50;;
66175;SDS011;52977;44.816;20.538;2022-10-01T06:26:15;7.85;;;3.97;;
66175;SDS011;52977;44.816;20.538;2022-10-01T06:28:41;13.23;;;4.75;;
66175;SDS011;52977;44.816;20.538;2022-10-01T06:31:07;13.27;;;6.20;;
66175;SDS011;52977;44.816;20.538;2022-10-01T06:33:32;15.90;;;7.10;;
66175;SDS011;52977;44.816;20.538;2022-10-01T06:35:58;14.77;;;6.63;;
66175;SDS011;52977;44.816;20.538;2022-10-01T06:38:24;14.70;;;6.07;;
66175;SDS011;52977;44.816;20.538;2022-10-01T06:40:51;16.30;;;6.90;;
66175;SDS011;52977;44.816;20.538;2022-10-01T06:43:18;18.98;;;8.13;;
66175;SDS011;52977;44.816;20.538;2022-10-01T06:45:44;14.05;;;6.55;;
66175;SDS011;52977;44.816;20.538;2022-10-01T06:48:14;9.40;;;4.32;;
66175;SDS011;52977;44.816;20.538;2022-10-01T06:53:11;11.00;;;2.40;;
66175;SDS011;52977;44.816;20.538;2022-10-01T06:55:37;6.03;;;2.38;;
66175;SDS011;52977;44.816;20.538;2022-10-01T06:58:07;6.03;;;2.35;;
66175;SDS011;52977;44.816;20.538;2022-10-01T07:00:40;4.78;;;2.45;;
66175;SDS011;52977;44.816;20.538;2022-10-01T07:03:07;5.22;;;2.30;;
66175;SDS011;52977;44.816;20.538;2022-10-01T07:05:36;5.85;;;2.40;;
66175;SDS011;52977;44.816;20.538;2022-10-01T07:08:02;6.07;;;2.60;;
66175;SDS011;52977;44.816;20.538;2022-10-01T07:10:28;6.95;;;2.83;;
66175;SDS011;52977;44.816;20.538;2022-10-01T07:12:54;7.63;;;3.17;;
66175;SDS011;52977;44.816;20.538;2022-10-01T07:15:20;12.60;;;4.85;;
66175;SDS011;52977;44.816;20.538;2022-10-01T07:17:50;15.85;;;6.82;;
66175;SDS011;52977;44.816;20.538;2022-10-01T07:20:17;14.35;;;7.25;;
66175;SDS011;52977;44.816;20.538;2022-10-01T07:22:44;16.33;;;7.88;;
66175;SDS011;52977;44.816;20.538;2022-10-01T07:25:11;20.75;;;9.60;;
66175;SDS011;52977;44.816;20.538;2022-10-01T07:27:38;24.20;;;12.15;;
66175;SDS011;52977;44.816;20.538;2022-10-01T07:30:04;21.48;;;9.65;;
66175;SDS011;52977;44.816;20.538;2022-10-01T07:32:31;18.60;;;8.45;;
66175;SDS011;52977;44.816;20.538;2022-10-01T07:34:59;16.73;;;7.55;;
66175;SDS011;52977;44.816;20.538;2022-10-01T07:37:25;14.18;;;5.93;;
66175;SDS011;52977;44.816;20.538;2022-10-01T07:39:52;9.13;;;4.30;;
66175;SDS011;52977;44.816;20.538;2022-10-01T07:42:18;9.00;;;3.30;;
66175;SDS011;52977;44.816;20.538;2022-10-01T07:44:45;8.57;;;3.50;;
66175;SDS011;52977;44.816;20.538;2022-10-01T07:47:11;12.75;;;4.53;;
66175;SDS011;52977;44.816;20.538;2022-10-01T07:49:37;10.88;;;4.38;;
66175;SDS011;52977;44.816;20.538;2022-10-01T07:52:02;7.32;;;4.10;;
66175;SDS011;52977;44.816;20.538;2022-10-01T07:54:29;6.93;;;3.50;;
66175;SDS011;52977;44.816;20.538;2022-10-01T07:56:55;6.88;;;3.05;;
66175;SDS011;52977;44.816;20.538;2022-10-01T07:59:21;5.43;;;2.55;;
66175;SDS011;52977;44.816;20.538;2022-10-01T08:01:50;6.22;;;2.33;;
66175;SDS011;52977;44.816;20.538;2022-10-01T08:04:16;7.57;;;3.05;;
66175;SDS011;52977;44.816;20.538;2022-10-01T08:07:01;6.18;;;2.70;;
66175;SDS011;52977;44.816;20.538;2022-10-01T08:09:27;10.32;;;3.72;;
66175;SDS011;52977;44.816;20.538;2022-10-01T08:11:53;7.13;;;2.70;;
66175;SDS011;52977;44.816;20.538;2022-10-01T08:14:18;7.75;;;2.60;;
66175;SDS011;52977;44.816;20.538;2022-10-01T08:16:44;6.70;;;2.83;;
66175;SDS011;52977;44.816;20.538;2022-10-01T08:19:11;7.05;;;2.50;;
66175;SDS011;52977;44.816;20.538;2022-10-01T08:21:39;4.10;;;2.67;;
66175;SDS011;52977;44.816;20.538;2022-10-01T08:24:05;7.03;;;2.70;;
66175;SDS011;52977;44.816;20.538;2022-10-01T08:26:31;6.78;;;2.63;;
66175;SDS011;52977;44.816;20.538;2022-10-01T08:28:57;5.85;;;2.38;;
66175;SDS011;52977;44.816;20.538;2022-10-01T08:31:23;6.93;;;2.35;;
66175;SDS011;52977;44.816;20.538;2022-10-01T08:33:50;4.70;;;2.20;;
66175;SDS011;52977;44.816;20.538;2022-10-01T08:36:16;6.15;;;2.60;;
66175;SDS011;52977;44.816;20.538;2022-10-01T08:38:45;7.25;;;3.00;;
66175;SDS011;52977;44.816;20.538;2022-10-01T08:43:50;6.68;;;2.55;;
66175;SDS011;52977;44.816;20.538;2022-10-01T08:46:18;6.88;;;2.50;;
66175;SDS011;52977;44.816;20.538;2022-10-01T08:51:46;7.22;;;2.10;;
66175;SDS011;52977;44.816;20.538;2022-10-01T08:57:04;5.07;;;2.22;;
66175;SDS011;52977;44.816;20.538;2022-10-01T08:59:39;8.93;;;2.42;;
66175;SDS011;52977;44.816;20.538;2022-10-01T09:04:45;4.28;;;2.17;;
66175;SDS011;52977;44.816;20.538;2022-10-01T09:07:24;4.97;;;2.30;;
66175;SDS011;52977;44.816;20.538;2022-10-01T09:13:16;7.15;;;2.78;;
66175;SDS011;52977;44.816;20.538;2022-10-01T09:16:11;8.20;;;3.03;;
66175;SDS011;52977;44.816;20.538;2022-10-01T09:18:38;5.85;;;2.78;;
66175;SDS011;52977;44.816;20.538;2022-10-01T09:21:22;5.55;;;2.65;;
66175;SDS011;52977;44.816;20.538;2022-10-01T09:26:44;7.28;;;2.78;;
66175;SDS011;52977;44.816;20.538;2022-10-01T09:29:15;8.07;;;2.70;;
66175;SDS011;52977;44.816;20.538;2022-10-01T09:31:52;7.38;;;2.70;;
66175;SDS011;52977;44.816;20.538;2022-10-01T09:37:19;6.63;;;2.35;;
66175;SDS011;52977;44.816;20.538;2022-10-01T09:42:46;8.18;;;2.85;;
66175;SDS011;52977;44.816;20.538;2022-10-01T09:45:12;8.82;;;2.67;;
66175;SDS011;52977;44.816;20.538;2022-10-01T09:47:39;9.15;;;3.20;;
66175;SDS011;52977;44.816;20.538;2022-10-01T09:50:10;7.28;;;3.00;;
66175;SDS011;52977;44.816;20.538;2022-10-01T09:52:40;9.55;;;2.90;;
66175;SDS011;52977;44.816;20.538;2022-10-01T09:57:52;5.75;;;2.80;;
66175;SDS011;52977;44.816;20.538;2022-10-01T10:00:33;6.13;;;3.10;;
66175;SDS011;52977;44.816;20.538;2022-10-01T10:03:01;7.15;;;3.13;;
66175;SDS011;52977;44.816;20.538;2022-10-01T10:05:28;10.00;;;3.25;;
66175;SDS011;52977;44.816;20.538;2022-10-01T10:08:04;6.03;;;3.10;;
66175;SDS011;52977;44.816;20.538;2022-10-01T10:10:38;6.15;;;3.20;;
66175;SDS011;52977;44.816;20.538;2022-10-01T10:13:20;6.93;;;3.10;;
66175;SDS011;52977;44.816;20.538;2022-10-01T10:15:52;9.15;;;3.50;;
66175;SDS011;52977;44.816;20.538;2022-10-01T10:18:32;10.45;;;3.40;;
66175;SDS011;52977;44.816;20.538;2022-10-01T10:21:10;6.85;;;3.40;;
66175;SDS011;52977;44.816;20.538;2022-10-01T10:23:47;8.07;;;4.20;;
66175;SDS011;52977;44.816;20.538;2022-10-01T10:26:24;16.13;;;10.25;;
66175;SDS011;52977;44.816;20.538;2022-10-01T10:28:52;19.20;;;15.00;;
66175;SDS011;52977;44.816;20.538;2022-10-01T10:31:27;16.25;;;12.20;;
66175;SDS011;52977;44.816;20.538;2022-10-01T10:34:16;13.10;;;8.45;;
66175;SDS011;52977;44.816;20.538;2022-10-01T10:36:46;10.73;;;5.78;;
66175;SDS011;52977;44.816;20.538;2022-10-01T10:39:19;8.57;;;4.93;;
66175;SDS011;52977;44.816;20.538;2022-10-01T10:41:53;8.75;;;4.47;;
66175;SDS011;52977;44.816;20.538;2022-10-01T10:44:21;9.43;;;4.22;;
66175;SDS011;52977;44.816;20.538;2022-10-01T10:46:50;10.35;;;3.80;;
66175;SDS011;52977;44.816;20.538;2022-10-01T10:49:25;7.55;;;3.80;;
66175;SDS011;52977;44.816;20.538;2022-10-01T10:51:54;12.80;;;3.60;;
66175;SDS011;52977;44.816;20.538;2022-10-01T10:54:29;7.13;;;3.70;;
66175;SDS011;52977;44.816;20.538;2022-10-01T10:56:58;7.15;;;3.60;;
66175;SDS011;52977;44.816;20.538;2022-10-01T10:59:30;7.72;;;3.70;;
66175;SDS011;52977;44.816;20.538;2022-10-01T11:01:58;9.02;;;3.70;;
66175;SDS011;52977;44.816;20.538;2022-10-01T11:04:39;7.63;;;3.60;;
66175;SDS011;52977;44.816;20.538;2022-10-01T11:07:07;7.88;;;3.33;;
66175;SDS011;52977;44.816;20.538;2022-10-01T11:09:46;9.45;;;4.00;;
66175;SDS011;52977;44.816;20.538;2022-10-01T11:12:27;9.05;;;3.58;;
66175;SDS011;52977;44.816;20.538;2022-10-01T11:15:17;7.30;;;3.47;;
66175;SDS011;52977;44.816;20.538;2022-10-01T11:26:46;7.30;;;3.58;;
66175;SDS011;52977;44.816;20.538;2022-10-01T11:32:40;6.97;;;3.55;;
66175;SDS011;52977;44.816;20.538;2022-10-01T11:35:17;7.82;;;4.13;;
66175;SDS011;52977;44.816;20.538;2022-10-01T11:40:39;9.02;;;3.85;;
66175;SDS011;52977;44.816;20.538;2022-10-01T11:45:56;13.23;;;4.00;;
66175;SDS011;52977;44.816;20.538;2022-10-01T11:48:29;10.50;;;4.70;;
66175;SDS011;52977;44.816;20.538;2022-10-01T11:51:04;12.50;;;4.65;;
66175;SDS011;52977;44.816;20.538;2022-10-01T11:53:41;8.23;;;3.80;;
66175;SDS011;52977;44.816;20.538;2022-10-01T11:56:31;8.40;;;3.28;;
66175;SDS011;52977;44.816;20.538;2022-10-01T11:59:23;8.38;;;3.70;;
66175;SDS011;52977;44.816;20.538;2022-10-01T12:05:26;7.57;;;3.88;;
66175;SDS011;52977;44.816;20.538;2022-10-01T12:07:48;7.68;;;3.72;;
66175;SDS011;52977;44.816;20.538;2022-10-01T12:21:36;13.00;;;5.07;;
66175;SDS011;52977;44.816;20.538;2022-10-01T12:24:15;9.73;;;3.92;;
66175;SDS011;52977;44.816;20.538;2022-10-01T12:27:10;10.23;;;4.38;;
66175;SDS011;52977;44.816;20.538;2022-10-01T12:56:03;11.82;;;4.68;;
66175;SDS011;52977;44.816;20.538;2022-10-01T12:58:44;9.88;;;4.03;;
66175;SDS011;52977;44.816;20.538;2022-10-01T13:01:42;7.47;;;3.78;;
66175;SDS011;52977;44.816;20.538;2022-10-01T13:09:40;8.05;;;4.43;;
66175;SDS011;52977;44.816;20.538;2022-10-01T13:14:43;10.00;;;3.88;;
66175;SDS011;52977;44.816;20.538;2022-10-01T13:22:52;8.60;;;4.28;;
66175;SDS011;52977;44.816;20.538;2022-10-01T13:25:39;11.52;;;4.20;;
66175;SDS011;52977;44.816;20.538;2022-10-01T13:28:21;12.10;;;6.03;;
66175;SDS011;52977;44.816;20.538;2022-10-01T13:35:53;8.00;;;4.57;;
66175;SDS011;52977;44.816;20.538;2022-10-01T13:38:44;8.48;;;4.18;;
66175;SDS011;52977;44.816;20.538;2022-10-01T13:41:21;11.38;;;5.30;;
66175;SDS011;52977;44.816;20.538;2022-10-01T13:46:35;9.63;;;5.03;;
66175;SDS011;52977;44.816;20.538;2022-10-01T13:49:26;10.77;;;4.05;;
66175;SDS011;52977;44.816;20.538;2022-10-01T13:51:56;9.05;;;4.50;;
66175;SDS011;52977;44.816;20.538;2022-10-01T13:54:27;10.77;;;4.60;;
66175;SDS011;52977;44.816;20.538;2022-10-01T13:57:19;12.40;;;4.60;;
66175;SDS011;52977;44.816;20.538;2022-10-01T14:02:35;7.78;;;3.75;;
66175;SDS011;52977;44.816;20.538;2022-10-01T14:05:14;8.80;;;4.20;;
66175;SDS011;52977;44.816;20.538;2022-10-01T14:07:43;5.53;;;3.47;;
66175;SDS011;52977;44.816;20.538;2022-10-01T14:10:13;8.60;;;3.40;;
66175;SDS011;52977;44.816;20.538;2022-10-01T14:12:41;8.30;;;3.55;;
66175;SDS011;52977;44.816;20.538;2022-10-01T14:15:32;10.60;;;4.25;;
66175;SDS011;52977;44.816;20.538;2022-10-01T14:18:28;10.65;;;4.55;;
66175;SDS011;52977;44.816;20.538;2022-10-01T14:21:06;13.52;;;4.68;;
66175;SDS011;52977;44.816;20.538;2022-10-01T14:32:29;8.32;;;2.00;;
66175;SDS011;52977;44.816;20.538;2022-10-01T14:35:24;2.55;;;1.48;;
66175;SDS011;52977;44.816;20.538;2022-10-01T14:37:56;7.28;;;1.65;;
66175;SDS011;52977;44.816;20.538;2022-10-01T14:40:25;6.30;;;1.88;;
66175;SDS011;52977;44.816;20.538;2022-10-01T14:43:02;3.03;;;1.38;;
66175;SDS011;52977;44.816;20.538;2022-10-01T14:45:48;3.15;;;1.23;;
66175;SDS011;52977;44.816;20.538;2022-10-01T14:48:27;4.93;;;1.20;;
66175;SDS011;52977;44.816;20.538;2022-10-01T14:50:56;4.40;;;1.30;;
66175;SDS011;52977;44.816;20.538;2022-10-01T14:53:24;5.05;;;1.73;;
66175;SDS011;52977;44.816;20.538;2022-10-01T14:55:53;5.80;;;1.92;;
66175;SDS011;52977;44.816;20.538;2022-10-01T14:58:26;3.33;;;1.00;;
66175;SDS011;52977;44.816;20.538;2022-10-01T15:00:55;3.25;;;1.17;;
66175;SDS011;52977;44.816;20.538;2022-10-01T15:03:21;4.30;;;1.20;;
66175;SDS011;52977;44.816;20.538;2022-10-01T15:05:47;3.50;;;1.00;;
66175;SDS011;52977;44.816;20.538;2022-10-01T15:08:21;3.15;;;1.00;;
66175;SDS011;52977;44.816;20.538;2022-10-01T15:11:02;3.17;;;1.05;;
66175;SDS011;52977;44.816;20.538;2022-10-01T15:13:34;4.03;;;1.25;;
66175;SDS011;52977;44.816;20.538;2022-10-01T15:16:02;3.60;;;1.50;;
66175;SDS011;52977;44.816;20.538;2022-10-01T15:18:29;3.55;;;1.00;;
66175;SDS011;52977;44.816;20.538;2022-10-01T15:21:03;5.47;;;1.17;;
66175;SDS011;52977;44.816;20.538;2022-10-01T15:23:31;3.75;;;1.45;;
66175;SDS011;52977;44.816;20.538;2022-10-01T15:26:01;5.50;;;1.27;;
66175;SDS011;52977;44.816;20.538;2022-10-01T15:28:31;5.40;;;1.90;;
66175;SDS011;52977;44.816;20.538;2022-10-01T15:30:58;3.92;;;1.75;;
66175;SDS011;52977;44.816;20.538;2022-10-01T15:33:43;4.28;;;1.30;;
66175;SDS011;52977;44.816;20.538;2022-10-01T15:36:14;5.63;;;1.25;;
66175;SDS011;52977;44.816;20.538;2022-10-01T15:38:43;2.70;;;1.13;;
66175;SDS011;52977;44.816;20.538;2022-10-01T15:41:17;3.78;;;1.40;;
66175;SDS011;52977;44.816;20.538;2022-10-01T15:43:48;7.55;;;1.58;;
66175;SDS011;52977;44.816;20.538;2022-10-01T15:46:15;4.38;;;1.30;;
66175;SDS011;52977;44.816;20.538;2022-10-01T15:48:43;7.47;;;1.30;;
66175;SDS011;52977;44.816;20.538;2022-10-01T15:51:23;5.32;;;1.60;;
66175;SDS011;52977;44.816;20.538;2022-10-01T15:53:52;2.95;;;1.20;;
66175;SDS011;52977;44.816;20.538;2022-10-01T15:56:26;7.15;;;2.58;;
66175;SDS011;52977;44.816;20.538;2022-10-01T15:58:53;14.52;;;5.05;;
66175;SDS011;52977;44.816;20.538;2022-10-01T16:01:28;5.68;;;2.58;;
66175;SDS011;52977;44.816;20.538;2022-10-01T16:04:10;6.93;;;1.40;;
66175;SDS011;52977;44.816;20.538;2022-10-01T16:06:39;4.00;;;1.27;;
66175;SDS011;52977;44.816;20.538;2022-10-01T16:09:18;4.03;;;1.25;;
66175;SDS011;52977;44.816;20.538;2022-10-01T16:11:51;3.63;;;1.40;;
66175;SDS011;52977;44.816;20.538;2022-10-01T16:14:39;2.40;;;1.15;;
66175;SDS011;52977;44.816;20.538;2022-10-01T16:19:49;6.22;;;1.45;;
66175;SDS011;52977;44.816;20.538;2022-10-01T16:24:55;4.22;;;1.23;;
66175;SDS011;52977;44.816;20.538;2022-10-01T16:34:50;6.28;;;2.00;;
66175;SDS011;52977;44.816;20.538;2022-10-01T16:37:16;4.00;;;1.77;;
66175;SDS011;52977;44.816;20.538;2022-10-01T16:39:42;3.42;;;1.80;;
66175;SDS011;52977;44.816;20.538;2022-10-01T16:42:12;6.05;;;2.33;;
66175;SDS011;52977;44.816;20.538;2022-10-01T16:44:43;4.15;;;1.80;;
66175;SDS011;52977;44.816;20.538;2022-10-01T16:47:09;4.88;;;1.92;;
66175;SDS011;52977;44.816;20.538;2022-10-01T16:49:36;3.35;;;1.52;;
66175;SDS011;52977;44.816;20.538;2022-10-01T16:52:01;3.72;;;1.60;;
66175;SDS011;52977;44.816;20.538;2022-10-01T16:54:28;4.70;;;1.60;;
66175;SDS011;52977;44.816;20.538;2022-10-01T16:56:53;4.75;;;2.03;;
66175;SDS011;52977;44.816;20.538;2022-10-01T16:59:20;5.40;;;2.40;;
66175;SDS011;52977;44.816;20.538;2022-10-01T17:01:50;8.05;;;4.05;;
66175;SDS011;52977;44.816;20.538;2022-10-01T17:04:20;7.93;;;3.60;;
66175;SDS011;52977;44.816;20.538;2022-10-01T17:06:46;7.57;;;3.97;;
66175;SDS011;52977;44.816;20.538;2022-10-01T17:09:12;12.45;;;4.43;;
66175;SDS011;52977;44.816;20.538;2022-10-01T17:11:38;6.75;;;3.47;;
66175;SDS011;52977;44.816;20.538;2022-10-01T17:14:05;10.88;;;3.88;;
66175;SDS011;52977;44.816;20.538;2022-10-01T17:16:33;8.55;;;2.53;;
66175;SDS011;52977;44.816;20.538;2022-10-01T17:18:59;7.55;;;2.45;;
66175;SDS011;52977;44.816;20.538;2022-10-01T17:21:26;6.28;;;2.22;;
66175;SDS011;52977;44.816;20.538;2022-10-01T17:23:52;6.10;;;2.10;;